LZTTLKMT

Guest
Details From LZTT - POPRAD TATRY
To LKMT - Ostrava Mosnov
Flight Number -
Tags generated
Created
Modified
Stats Distance 91 nm / 169 km
Max Altitude 9,100 ft / 2,774 m
Waypoints 3
Social Downloads 0
Likes 0
Share VATSIM

Download

Looking for another format? Having issues loading an existing format? Contact us
Advertisement - Login to hide

Notes

Basic altitude profile: - Ascent Rate: 1600ft/min - Ascent Speed: 250kts - Cruise Altitude: 15000ft - Cruise Speed: 420kts - Descent Rate: 1600ft/min - Descent Speed: 250kts Options: - Use NATs: yes - Use PACOTS: yes - Use low airways: yes - Use high airways: yes

Route

LZTT REDSI LKMT

ID Type Via Altitude Latitude Longitude Leg Dist Tot Dist Heading (true) Name
O LZTT APT - 0 ft / 0 m 49.07216˚ 20.24126˚ - 0 nm - POPRAD TATRY
REDSI FIX - 9,100 ft / 2,774 m 49.23333˚ 19.63944˚ 25 nm 25 nm 292° / 292° -
O LKMT APT - 0 ft / 0 m 49.69622˚ 18.11085˚ 65 nm 91 nm 296° / 294° Ostrava Mosnov

Altitude Profile

Advertisement - Login to hide

LZTT

Details ICAO LZTT (TAT)
Name POPRAD TATRY
Region Slovakia
Timezone Europe/Bratislava (UTC+1.0)
Stats Elevation 2,355 ft / 718 m (AMSL)
Location 49.072159° 20.241258°
Runways 2
Magnetic Variation 5.171° E

METAR

LZTT 152000Z 30005KT 9999 FEW020 01/M01 Q0999

Decode

TAF

Not found

Departure Runways

ID Width Length Bearing (true) Bearing (mag) Surface Threshold Offset Overrun Length
07 269 ft / 82 m 2,492 ft / 760 m 73.54° 68.37° Grass 0 ft / 0 m 0 ft / 0 m
09 148 ft / 45 m 8,478 ft / 2,584 m 94.19° 89.02° Concrete 0 ft / 0 m 0 ft / 0 m
25 269 ft / 82 m 2,492 ft / 760 m 253.55° 248.38° Grass 0 ft / 0 m 0 ft / 0 m
27 148 ft / 45 m 8,478 ft / 2,584 m 274.21° 269.04° Concrete 0 ft / 0 m 0 ft / 0 m

LKMT

Details ICAO LKMT (OSR)
Name Ostrava Mosnov
Region Czech Republic
Timezone Europe/Prague (UTC+1.0)
Stats Elevation 843 ft / 257 m (AMSL)
Location 49.696217° 18.110855°
Runways 1
Magnetic Variation 4.764° E

METAR

LKMT 152000Z 24003KT CAVOK 01/M02 Q1000 NOSIG

Decode

TAF

TAF LKMT 151700Z 1518/1700 20006KT CAVOK BECMG 1519/1521 VRB02KT TEMPO 1523/1608 3000 BR SCT005 BECMG 1611/1614 9999 BKN025 BECMG 1619/1621 21008KT CAVOK

Decode

Destination Runways

ID Width Length Bearing (true) Bearing (mag) Surface Threshold Offset Overrun Length
04 207 ft / 63 m 11,532 ft / 3,515 m 46.29° 41.53° Concrete 0 ft / 0 m 52 ft / 16 m
22 207 ft / 63 m 11,532 ft / 3,515 m 226.31° 221.55° Concrete 0 ft / 0 m 49 ft / 15 m

Approach Navaids

Runway Type Ident Frequency Range Bearing (true) Bearing (mag) Slope Elevation
22 Localiser OSV 110.95 MHz 18 nm / 33 km 226.26° 221.50° - 807 ft / 246 m (AMSL)
22 Glidescope OSV 110.95 MHz 10 nm / 19 km 226.30° 221.54° 3.00° 807 ft / 246 m (AMSL)
22 DME OSV 110.95 MHz 18 nm / 33 km - - - 824 ft / 251 m (AMSL)